createdAt,value
2023-05-10T00:02:15.661Z,13.14
2023-05-10T00:05:17.495Z,13.11
2023-05-10T00:08:19.183Z,13.11
2023-05-10T00:11:22.877Z,13.04
2023-05-10T00:14:24.818Z,13.02
2023-05-10T00:17:26.560Z,13.03
2023-05-10T00:20:28.266Z,12.97
2023-05-10T00:23:30.024Z,13.02
2023-05-10T00:26:31.722Z,12.99
2023-05-10T00:29:34.844Z,12.89
2023-05-10T00:32:36.523Z,12.90
2023-05-10T00:35:39.009Z,13.00
2023-05-10T00:38:41.474Z,13.03
2023-05-10T00:41:43.130Z,12.99
2023-05-10T00:44:44.955Z,12.93
2023-05-10T00:47:47.217Z,12.99
2023-05-10T00:50:49.274Z,12.94
2023-05-10T00:53:52.406Z,12.89
2023-05-10T00:56:54.992Z,12.86
2023-05-10T00:59:56.894Z,12.95
2023-05-10T01:02:59.402Z,12.96
2023-05-10T01:06:01.254Z,12.95
2023-05-10T01:09:03.134Z,12.95
2023-05-10T01:12:08.008Z,12.92
2023-05-10T01:15:11.915Z,12.89
2023-05-10T01:18:13.787Z,12.86
2023-05-10T01:21:33.189Z,12.87
2023-05-10T01:24:49.883Z,12.87
2023-05-10T01:28:06.671Z,12.88
2023-05-10T01:31:14.402Z,12.87
2023-05-10T01:34:27.091Z,12.89
2023-05-10T01:37:53.650Z,12.84
2023-05-10T01:41:30.181Z,12.85
2023-05-10T01:44:54.404Z,12.90
2023-05-10T01:48:11.365Z,12.88
2023-05-10T01:51:18.997Z,12.91
2023-05-10T01:54:22.741Z,12.89
2023-05-10T01:57:28.878Z,12.92
2023-05-10T02:00:32.399Z,12.83
2023-05-10T02:03:37.411Z,12.86
2023-05-10T02:06:42.366Z,12.84
2023-05-10T02:09:49.002Z,12.85
2023-05-10T02:12:53.152Z,12.86
2023-05-10T02:15:56.144Z,12.89
2023-05-10T02:19:00.294Z,12.91
2023-05-10T02:22:03.681Z,12.88
2023-05-10T02:25:06.844Z,12.89
2023-05-10T02:28:09.647Z,12.85
2023-05-10T02:31:11.954Z,12.83
2023-05-10T02:34:14.646Z,12.87
2023-05-10T02:37:19.410Z,12.89
2023-05-10T02:40:23.994Z,12.88
2023-05-10T02:43:26.731Z,12.94
2023-05-10T02:46:28.688Z,12.92
2023-05-10T02:49:31.399Z,12.85
2023-05-10T02:52:41.446Z,12.90
2023-05-10T02:55:46.251Z,12.84
2023-05-10T02:58:47.989Z,12.83
2023-05-10T03:01:49.732Z,12.81
2023-05-10T03:04:52.182Z,12.84
2023-05-10T03:07:55.546Z,12.85
2023-05-10T03:11:15.687Z,12.85
2023-05-10T03:14:24.923Z,12.86
2023-05-10T03:17:35.730Z,12.82
2023-05-10T03:20:42.686Z,12.83
2023-05-10T03:23:49.165Z,12.79
2023-05-10T03:26:54.006Z,12.85
2023-05-10T03:29:57.094Z,12.83
2023-05-10T03:32:59.191Z,12.74
2023-05-10T03:36:01.470Z,12.64
2023-05-10T03:39:03.769Z,12.54
2023-05-10T03:42:06.088Z,12.54
2023-05-10T03:45:08.704Z,12.44
2023-05-10T03:48:10.515Z,12.43
2023-05-10T03:51:12.238Z,12.43
2023-05-10T03:54:15.899Z,12.39
2023-05-10T03:57:17.595Z,12.35
2023-05-10T04:00:19.832Z,12.36
2023-05-10T04:03:26.884Z,12.40
2023-05-10T04:06:28.692Z,12.45
2023-05-10T04:09:30.643Z,12.48
2023-05-10T04:12:32.406Z,12.37
2023-05-10T04:15:34.082Z,12.52
2023-05-10T04:18:36.205Z,12.50
2023-05-10T04:21:37.876Z,12.50
2023-05-10T04:24:39.577Z,12.48
2023-05-10T04:27:41.220Z,12.53
2023-05-10T04:30:43.034Z,12.41
2023-05-10T04:33:44.636Z,12.52
2023-05-10T04:36:46.683Z,12.54
2023-05-10T04:39:48.352Z,12.63
2023-05-10T04:42:50.061Z,12.57
2023-05-10T04:45:51.752Z,12.60
2023-05-10T04:48:53.344Z,12.65
2023-05-10T04:51:55.227Z,12.65
2023-05-10T04:54:59.595Z,12.65
2023-05-10T04:58:01.676Z,12.58
2023-05-10T05:01:11.564Z,12.68
2023-05-10T05:04:13.339Z,12.66
2023-05-10T05:07:15.006Z,12.58
2023-05-10T05:10:17.023Z,12.38
2023-05-10T05:13:19.760Z,12.34
2023-05-10T05:16:21.532Z,12.34
2023-05-10T05:19:23.871Z,12.30
2023-05-10T05:22:28.557Z,12.34
2023-05-10T05:25:30.362Z,12.31
2023-05-10T05:28:35.009Z,12.30
2023-05-10T05:31:36.742Z,12.36
2023-05-10T05:34:38.450Z,12.31
2023-05-10T05:37:40.766Z,12.38
2023-05-10T05:40:42.449Z,12.30
2023-05-10T05:43:44.100Z,12.37
2023-05-10T05:46:46.337Z,12.40
2023-05-10T05:49:48.203Z,12.41
2023-05-10T05:52:49.923Z,12.47
2023-05-10T05:55:55.910Z,12.45
2023-05-10T05:58:57.592Z,12.44
2023-05-10T06:01:59.755Z,12.46
2023-05-10T06:05:01.442Z,12.50
2023-05-10T06:08:03.130Z,12.51
2023-05-10T06:11:05.222Z,12.54
2023-05-10T06:14:08.799Z,12.54
2023-05-10T06:17:10.545Z,12.50
2023-05-10T06:20:12.955Z,12.55
2023-05-10T06:23:14.906Z,12.49
2023-05-10T06:26:16.829Z,12.61
2023-05-10T06:29:18.652Z,12.63
2023-05-10T06:32:20.254Z,12.66
2023-05-10T06:35:22.028Z,12.65
2023-05-10T06:38:23.779Z,12.75
2023-05-10T06:41:25.456Z,12.71
2023-05-10T06:44:27.123Z,12.64
2023-05-10T06:47:28.902Z,12.64
2023-05-10T06:50:30.627Z,12.66
2023-05-10T06:53:32.345Z,12.69
2023-05-10T06:56:34.130Z,12.76
2023-05-10T06:59:35.973Z,12.76
2023-05-10T07:02:37.742Z,12.77
2023-05-10T07:05:39.783Z,12.81
2023-05-10T07:08:41.564Z,12.73
2023-05-10T07:11:43.234Z,12.87
2023-05-10T07:14:44.994Z,12.85
2023-05-10T07:17:46.819Z,12.98
2023-05-10T07:20:48.734Z,13.00
2023-05-10T07:23:50.836Z,13.03
2023-05-10T07:26:52.462Z,13.02
2023-05-10T07:29:54.233Z,13.00
2023-05-10T07:32:56.002Z,13.17
2023-05-10T07:35:57.768Z,13.21
2023-05-10T07:38:59.497Z,13.22
2023-05-10T07:42:01.232Z,13.27
2023-05-10T07:45:03.079Z,13.33
2023-05-10T07:48:04.804Z,13.35
2023-05-10T07:51:08.171Z,13.45
2023-05-10T07:54:09.824Z,13.58
2023-05-10T07:57:11.553Z,13.56
2023-05-10T08:00:14.652Z,13.60
2023-05-10T08:03:16.790Z,13.58
2023-05-10T08:06:19.569Z,13.66
2023-05-10T08:09:24.946Z,13.54
2023-05-10T08:12:26.842Z,13.41
2023-05-10T08:15:28.471Z,13.52
2023-05-10T08:18:30.223Z,13.64
2023-05-10T08:21:32.750Z,13.67
2023-05-10T08:24:39.144Z,13.72
2023-05-10T08:27:40.772Z,13.94
2023-05-10T08:30:42.469Z,14.29
2023-05-10T08:33:44.786Z,14.33
2023-05-10T08:36:46.647Z,14.60
2023-05-10T08:39:51.133Z,14.59
2023-05-10T08:42:59.457Z,14.25
2023-05-10T08:46:04.069Z,13.37
2023-05-10T08:49:07.875Z,12.93
2023-05-10T08:52:13.731Z,12.98
2023-05-10T08:55:16.957Z,12.95
2023-05-10T08:58:20.587Z,12.89
2023-05-10T09:01:22.582Z,12.76
2023-05-10T09:04:24.608Z,12.81
2023-05-10T09:07:26.764Z,12.80
2023-05-10T09:10:29.621Z,12.85
2023-05-10T09:13:32.102Z,12.84
2023-05-10T09:16:33.851Z,13.16
2023-05-10T09:19:35.586Z,13.25
2023-05-10T09:22:38.802Z,13.20
2023-05-10T09:25:42.672Z,13.32
2023-05-10T09:28:53.290Z,13.61
2023-05-10T09:31:57.743Z,13.78
2023-05-10T09:35:07.474Z,13.89
2023-05-10T09:38:09.287Z,13.82
2023-05-10T09:41:18.390Z,13.52
2023-05-10T09:44:20.586Z,13.47
2023-05-10T09:47:22.360Z,13.35
2023-05-10T09:50:24.802Z,13.13
2023-05-10T09:53:26.470Z,13.12
2023-05-10T09:56:40.051Z,13.36
2023-05-10T09:59:44.248Z,13.60
2023-05-10T10:02:55.260Z,13.98
2023-05-10T10:05:57.101Z,14.25
2023-05-10T10:08:58.786Z,14.34
2023-05-10T10:12:04.791Z,14.45
2023-05-10T10:15:08.384Z,14.28
2023-05-10T10:18:14.141Z,14.21
2023-05-10T10:21:16.376Z,14.16
2023-05-10T10:24:18.046Z,14.23
2023-05-10T10:27:29.430Z,14.35
2023-05-10T10:30:43.829Z,14.41
2023-05-10T10:34:00.381Z,14.78
2023-05-10T10:37:06.714Z,14.91
2023-05-10T10:40:33.633Z,15.19
2023-05-10T10:43:36.628Z,15.46
2023-05-10T10:47:27.844Z,15.08
2023-05-10T10:50:29.759Z,14.60
2023-05-10T10:53:31.615Z,14.79
2023-05-10T10:56:34.356Z,15.11
2023-05-10T10:59:37.501Z,15.38
2023-05-10T11:02:42.579Z,15.79
2023-05-10T11:05:46.808Z,15.97
2023-05-10T11:08:48.849Z,15.42
2023-05-10T11:11:56.295Z,15.71
2023-05-10T11:14:58.830Z,15.96
2023-05-10T11:18:01.265Z,15.90
2023-05-10T11:21:04.325Z,16.35
2023-05-10T11:24:14.914Z,16.97
2023-05-10T11:27:16.653Z,16.84
2023-05-10T11:30:18.703Z,17.32
2023-05-10T11:33:20.990Z,17.22
2023-05-10T11:36:28.485Z,17.32
2023-05-10T11:39:32.080Z,17.44
2023-05-10T11:42:34.575Z,17.45
2023-05-10T11:45:36.674Z,16.79
2023-05-10T11:48:42.841Z,17.09
2023-05-10T11:51:44.676Z,16.88
2023-05-10T11:54:52.249Z,16.78
2023-05-10T11:57:55.044Z,16.63
2023-05-10T12:00:57.008Z,16.56
2023-05-10T12:04:01.141Z,16.78
2023-05-10T12:07:03.289Z,17.00
2023-05-10T12:10:06.221Z,17.44
2023-05-10T12:13:13.801Z,17.27
2023-05-10T12:16:21.654Z,17.47
2023-05-10T12:19:23.613Z,16.64
2023-05-10T12:22:25.634Z,16.60
2023-05-10T12:25:32.260Z,16.48
2023-05-10T12:28:34.361Z,16.30
2023-05-10T12:31:50.780Z,16.17
2023-05-10T12:34:54.345Z,16.43
2023-05-10T12:37:55.964Z,16.60
2023-05-10T12:41:01.754Z,16.59
2023-05-10T12:44:03.375Z,16.33
2023-05-10T12:47:05.105Z,16.29
2023-05-10T12:50:07.379Z,16.51
2023-05-10T12:53:09.651Z,16.82
2023-05-10T12:56:11.493Z,16.71
2023-05-10T12:59:13.150Z,16.41
2023-05-10T13:02:15.677Z,16.46
2023-05-10T13:05:17.378Z,16.37
2023-05-10T13:08:19.101Z,16.30
2023-05-10T13:11:21.142Z,16.52
2023-05-10T13:14:22.942Z,16.61
2023-05-10T13:17:26.362Z,16.94
2023-05-10T13:20:28.296Z,16.97
2023-05-10T13:23:29.902Z,17.18
2023-05-10T13:26:31.519Z,17.84
2023-05-10T13:29:33.150Z,18.17
2023-05-10T13:32:35.063Z,18.06
2023-05-10T13:35:36.927Z,18.69
2023-05-10T13:38:38.682Z,18.51
2023-05-10T13:41:40.678Z,18.33
2023-05-10T13:44:42.528Z,18.70
2023-05-10T13:47:44.524Z,19.23
2023-05-10T13:50:47.186Z,18.93
2023-05-10T13:53:49.079Z,19.06
2023-05-10T13:56:50.928Z,18.42
2023-05-10T13:59:54.042Z,18.09
2023-05-10T14:02:56.543Z,17.42
2023-05-10T14:05:59.044Z,17.81
2023-05-10T14:09:00.749Z,18.17
2023-05-10T14:12:03.202Z,17.99
2023-05-10T14:15:07.693Z,18.01
2023-05-10T14:18:09.801Z,18.45
2023-05-10T14:21:11.579Z,18.22
2023-05-10T14:24:13.253Z,18.49
2023-05-10T14:27:15.121Z,18.00
2023-05-10T14:30:17.056Z,18.36
2023-05-10T14:33:18.821Z,18.76
2023-05-10T14:36:20.543Z,18.49
2023-05-10T14:39:22.256Z,17.60
2023-05-10T14:42:23.898Z,17.81
2023-05-10T14:45:25.596Z,18.10
2023-05-10T14:48:27.251Z,18.39
2023-05-10T14:51:28.977Z,18.33
2023-05-10T14:54:31.037Z,18.35
2023-05-10T14:57:33.398Z,17.95
2023-05-10T15:00:37.549Z,17.44
2023-05-10T15:03:39.623Z,16.98
2023-05-10T15:06:42.012Z,16.48
2023-05-10T15:09:43.941Z,15.67
2023-05-10T15:12:45.579Z,15.09
2023-05-10T15:15:47.239Z,15.11
2023-05-10T15:18:49.426Z,14.92
2023-05-10T15:21:51.105Z,14.88
2023-05-10T15:24:52.720Z,14.90
2023-05-10T15:27:54.385Z,14.62
2023-05-10T15:30:57.207Z,14.33
2023-05-10T15:34:02.218Z,14.06
2023-05-10T15:37:03.898Z,14.12
2023-05-10T15:40:06.551Z,14.16
2023-05-10T15:43:08.381Z,14.21
2023-05-10T15:46:10.027Z,14.21
2023-05-10T15:49:11.731Z,14.18
2023-05-10T15:52:13.408Z,13.91
2023-05-10T15:55:15.488Z,13.82
2023-05-10T15:58:17.423Z,13.78
2023-05-10T16:01:19.285Z,13.72
2023-05-10T16:04:21.168Z,13.59
2023-05-10T16:07:23.340Z,13.41
2023-05-10T16:10:24.998Z,13.35
2023-05-10T16:13:27.034Z,13.34
2023-05-10T16:16:28.962Z,13.24
2023-05-10T16:19:33.679Z,13.31
2023-05-10T16:22:35.860Z,13.35
2023-05-10T16:25:37.703Z,13.28
2023-05-10T16:28:40.976Z,13.21
2023-05-10T16:31:44.112Z,13.36
2023-05-10T16:34:45.886Z,13.82
2023-05-10T16:37:47.730Z,13.86
2023-05-10T16:40:49.459Z,14.10
2023-05-10T16:43:51.721Z,14.28
2023-05-10T16:46:54.924Z,14.62
2023-05-10T16:49:56.806Z,14.49
2023-05-10T16:52:58.669Z,14.69
2023-05-10T16:56:00.624Z,14.81
2023-05-10T16:59:02.326Z,14.62
2023-05-10T17:02:04.200Z,14.67
2023-05-10T17:05:06.169Z,14.65
2023-05-10T17:08:07.808Z,14.72
2023-05-10T17:11:09.442Z,14.67
2023-05-10T17:14:12.347Z,14.64
2023-05-10T17:17:14.002Z,14.78
2023-05-10T17:20:16.730Z,14.99
2023-05-10T17:23:18.476Z,14.74
2023-05-10T17:26:20.244Z,14.64
2023-05-10T17:29:22.040Z,14.72
2023-05-10T17:32:23.765Z,14.65
2023-05-10T17:35:25.755Z,14.82
2023-05-10T17:38:27.460Z,14.87
2023-05-10T17:41:29.088Z,14.83
2023-05-10T17:44:30.767Z,14.65
2023-05-10T17:47:32.532Z,14.60
2023-05-10T17:50:34.283Z,14.51
2023-05-10T17:53:35.959Z,14.36
2023-05-10T17:56:37.653Z,14.34
2023-05-10T17:59:39.244Z,14.40
2023-05-10T18:02:41.073Z,14.21
2023-05-10T18:05:42.911Z,14.12
2023-05-10T18:08:45.147Z,13.94
2023-05-10T18:11:46.779Z,13.70
2023-05-10T18:14:48.414Z,13.54
2023-05-10T18:17:50.699Z,13.51
2023-05-10T18:20:56.678Z,13.27
2023-05-10T18:23:58.368Z,13.22
2023-05-10T18:27:00.412Z,13.24
2023-05-10T18:30:02.339Z,13.14
2023-05-10T18:33:04.190Z,13.03
2023-05-10T18:36:06.011Z,12.96
2023-05-10T18:39:08.434Z,12.97
2023-05-10T18:42:10.302Z,12.86
2023-05-10T18:45:13.171Z,12.82
2023-05-10T18:48:14.821Z,12.82
2023-05-10T18:51:16.488Z,12.84
2023-05-10T18:54:18.181Z,12.80
2023-05-10T18:57:21.205Z,12.77
2023-05-10T19:00:22.979Z,12.57
2023-05-10T19:03:24.757Z,12.57
2023-05-10T19:06:26.389Z,12.65
2023-05-10T19:09:28.814Z,12.67
2023-05-10T19:12:30.610Z,12.65
2023-05-10T19:15:33.020Z,12.57
2023-05-10T19:18:34.880Z,12.56
2023-05-10T19:21:37.122Z,12.60
2023-05-10T19:24:38.809Z,12.57
2023-05-10T19:27:40.436Z,12.55
2023-05-10T19:30:42.008Z,12.50
2023-05-10T19:33:43.689Z,12.45
2023-05-10T19:36:45.318Z,12.41
2023-05-10T19:39:47.283Z,12.31
2023-05-10T19:42:48.916Z,12.19
2023-05-10T19:45:50.638Z,12.15
2023-05-10T19:48:52.316Z,12.13
2023-05-10T19:51:53.982Z,11.99
2023-05-10T19:54:55.704Z,12.16
2023-05-10T19:57:58.084Z,12.15
2023-05-10T20:01:00.017Z,12.14
2023-05-10T20:04:01.920Z,12.04
2023-05-10T20:07:03.767Z,12.22
2023-05-10T20:10:05.752Z,12.04
2023-05-10T20:13:07.712Z,12.09
2023-05-10T20:16:09.436Z,12.06
2023-05-10T20:19:12.306Z,12.00
2023-05-10T20:22:13.982Z,11.91
2023-05-10T20:25:17.287Z,11.81
2023-05-10T20:28:22.742Z,11.83
2023-05-10T20:31:24.498Z,11.99
2023-05-10T20:34:26.185Z,11.89
2023-05-10T20:37:28.260Z,11.89
2023-05-10T20:40:29.891Z,11.86
2023-05-10T20:43:31.584Z,11.82
2023-05-10T20:46:33.730Z,11.82
2023-05-10T20:49:37.781Z,11.81
2023-05-10T20:52:39.504Z,11.83
2023-05-10T20:55:41.138Z,11.78
2023-05-10T20:58:42.864Z,11.80
2023-05-10T21:01:45.405Z,11.79
2023-05-10T21:04:47.303Z,11.83
2023-05-10T21:07:49.541Z,11.89
2023-05-10T21:10:51.296Z,11.84
2023-05-10T21:13:52.971Z,11.83
2023-05-10T21:16:54.661Z,11.89
2023-05-10T21:19:56.329Z,11.80
2023-05-10T21:22:58.406Z,11.83
2023-05-10T21:26:00.595Z,11.83
2023-05-10T21:29:02.688Z,11.83
2023-05-10T21:32:05.082Z,11.85
2023-05-10T21:35:07.419Z,11.77
2023-05-10T21:38:09.793Z,11.78
2023-05-10T21:41:11.510Z,11.80
2023-05-10T21:44:13.364Z,11.77
2023-05-10T21:47:14.996Z,11.83
2023-05-10T21:50:16.723Z,11.82
2023-05-10T21:53:18.469Z,11.78
2023-05-10T21:56:20.068Z,11.74
2023-05-10T21:59:21.757Z,11.81
2023-05-10T22:02:23.921Z,11.74
2023-05-10T22:05:25.542Z,11.72
2023-05-10T22:08:27.306Z,11.69
2023-05-10T22:11:28.986Z,11.58
2023-05-10T22:14:30.875Z,11.68
2023-05-10T22:17:32.561Z,11.65
2023-05-10T22:20:34.208Z,11.65
2023-05-10T22:23:36.084Z,11.68
2023-05-10T22:26:37.657Z,11.65
2023-05-10T22:29:39.259Z,11.62
2023-05-10T22:32:40.877Z,11.71
2023-05-10T22:35:42.515Z,11.71
2023-05-10T22:38:44.148Z,11.62
2023-05-10T22:41:45.779Z,11.57
2023-05-10T22:44:47.377Z,11.64
2023-05-10T22:47:49.026Z,11.62
2023-05-10T22:50:50.834Z,11.62
2023-05-10T22:53:52.611Z,11.56
2023-05-10T22:56:54.703Z,11.57
2023-05-10T22:59:56.421Z,11.55
2023-05-10T23:02:58.178Z,11.62
2023-05-10T23:05:59.827Z,11.58
2023-05-10T23:09:01.504Z,11.59
2023-05-10T23:12:03.496Z,11.66
2023-05-10T23:15:06.153Z,11.59
2023-05-10T23:18:09.726Z,11.63
2023-05-10T23:21:11.448Z,11.60
2023-05-10T23:24:13.584Z,11.56
2023-05-10T23:27:15.302Z,11.55
2023-05-10T23:30:17.301Z,11.52
2023-05-10T23:33:19.227Z,11.56
2023-05-10T23:36:20.914Z,11.47
2023-05-10T23:39:25.220Z,11.57
2023-05-10T23:42:26.835Z,11.53
2023-05-10T23:45:28.571Z,11.46
2023-05-10T23:48:30.250Z,11.50
2023-05-10T23:51:32.815Z,11.51
2023-05-10T23:54:34.532Z,11.47
